Time;durP1;ratioP1;P1;durP2;ratioP2;P2;SDS_P1;SDS_P2;PMS_P1;PMS_P2;Temp;Humidity;BMP_temperature;BMP_pressure;BME280_temperature;BME280_humidity;BME280_pressure;Samples;Min_cycle;Max_cycle;Signal;HPM_P1;HPM_P2
2022/01/10 00:02:03;;;;;;;;;71.00;54.50;;;;;-3.92;100.00;98841.22;6310807;20;2869032;-44
2022/01/10 00:04:33;;;;;;;;;85.67;63.67;;;;;-3.77;100.00;98828.69;6284027;20;2903524;-42
2022/01/10 00:07:03;;;;;;;;;84.67;62.33;;;;;-3.92;100.00;98834.22;6315498;20;3650289;-44
2022/01/10 00:09:31;;;;;;;;;80.50;61.00;;;;;-4.11;100.00;98840.66;6310309;20;2500340;-43
2022/01/10 00:12:01;;;;;;;;;91.00;65.00;;;;;-4.23;100.00;98833.88;6283224;20;2905574;-42
2022/01/10 00:14:37;;;;;;;;;87.00;60.33;;;;;-4.00;100.00;98833.50;6315994;20;2897221;-42
2022/01/10 00:17:06;;;;;;;;;87.67;63.00;;;;;-4.03;100.00;98838.75;6315888;20;3660761;-41
2022/01/10 00:19:35;;;;;;;;;82.50;63.50;;;;;-4.23;100.00;98834.72;6314761;20;2872128;-42
2022/01/10 00:22:07;;;;;;;;;80.50;60.00;;;;;-4.07;100.00;98839.72;6282796;20;2885763;-42
2022/01/10 00:24:37;;;;;;;;;89.33;64.67;;;;;-3.98;100.00;98840.44;6283573;20;2899277;-41
2022/01/10 00:27:07;;;;;;;;;89.67;66.67;;;;;-4.24;100.00;98848.72;6314977;20;2903385;-42
2022/01/10 00:29:37;;;;;;;;;84.67;66.33;;;;;-4.15;100.00;98850.34;6314167;20;2880516;-42
2022/01/10 00:32:07;;;;;;;;;86.67;61.33;;;;;-4.13;100.00;98848.56;6315281;20;2906560;-42
2022/01/10 00:34:36;;;;;;;;;89.00;65.00;;;;;-4.14;100.00;98844.19;6314779;20;2908633;-42
2022/01/10 00:37:06;;;;;;;;;93.00;64.33;;;;;-4.06;100.00;98846.69;6314358;20;3659687;-41
2022/01/10 00:39:36;;;;;;;;;86.33;63.00;;;;;-4.09;100.00;98849.38;6313743;20;3663768;-42
2022/01/10 00:42:06;;;;;;;;;88.00;65.33;;;;;-4.14;100.00;98851.19;6315453;20;2893090;-42
2022/01/10 00:44:44;;;;;;;;;84.33;65.00;;;;;-4.26;100.00;98842.63;6314302;20;2890926;-41
2022/01/10 00:47:15;;;;;;;;;83.33;62.33;;;;;-4.21;100.00;98846.06;6315361;20;2888912;-41
2022/01/10 00:49:44;;;;;;;;;64.00;43.50;;;;;-4.41;100.00;98846.34;6310026;20;2868996;-42
2022/01/10 00:52:14;;;;;;;;;82.00;60.33;;;;;-4.29;100.00;98845.31;6283122;20;2896325;-42
2022/01/10 00:54:42;;;;;;;;;75.00;62.00;;;;;-4.21;100.00;98848.69;6307934;20;2492998;-41
2022/01/10 00:57:12;;;;;;;;;77.50;61.00;;;;;-4.35;100.00;98845.38;6281672;20;2885722;-42
2022/01/10 00:59:41;;;;;;;;;82.00;63.33;;;;;-4.39;100.00;98850.72;6279767;20;2887765;-42
2022/01/10 01:02:10;;;;;;;;;80.00;60.00;;;;;-4.46;100.00;98849.94;6310770;20;2880695;-41
2022/01/10 01:04:39;;;;;;;;;87.00;66.50;;;;;-4.50;100.00;98848.22;6282027;20;2880560;-41
2022/01/10 01:07:09;;;;;;;;;85.67;64.33;;;;;-4.79;100.00;98851.25;6280572;20;2889825;-42
2022/01/10 01:09:42;;;;;;;;;84.00;60.33;;;;;-4.71;100.00;98852.91;6313488;20;2895303;-41
2022/01/10 01:12:33;;;;;;;;;75.50;58.00;;;;;-4.51;100.00;98856.97;6308196;20;2499289;-45
2022/01/10 01:15:17;;;;;;;;;83.00;62.00;;;;;-4.67;100.00;98851.09;6277190;20;2500288;-43
2022/01/10 01:17:59;;;;;;;;;81.50;61.00;;;;;-4.73;100.00;98843.34;6280432;20;2876281;-41
2022/01/10 01:26:04;;;;;;;;;83.00;59.00;;;;;-4.97;100.00;98839.28;6277814;20;2500280;-41
2022/01/10 01:28:33;;;;;;;;;84.50;60.00;;;;;-4.98;100.00;98842.78;6280843;20;2876345;-41
2022/01/10 01:31:01;;;;;;;;;78.50;58.00;;;;;-5.20;100.00;98844.81;6275600;20;2502391;-41
2022/01/10 01:33:29;;;;;;;;;74.00;57.00;;;;;-5.20;100.00;98843.03;6276007;20;2501337;-42
2022/01/10 01:35:57;;;;;;;;;71.50;58.00;;;;;-5.12;100.00;98846.44;6282980;20;2850269;-43
2022/01/10 01:38:25;;;;;;;;;83.00;58.00;;;;;-4.98;100.00;98848.88;6277941;20;2500409;-43
2022/01/10 01:41:09;;;;;;;;;75.00;52.00;;;;;-5.08;100.00;98861.22;6278392;20;2767962;-42
2022/01/10 01:43:40;;;;;;;;;82.50;57.00;;;;;-4.97;100.00;98861.09;6310623;20;2893982;-42
2022/01/10 01:46:09;;;;;;;;;75.00;57.00;;;;;-4.56;100.00;98862.28;6279171;20;2861697;-41
2022/01/10 01:48:39;;;;;;;;;88.00;66.67;;;;;-4.82;100.00;98860.00;6280570;20;2898243;-42
2022/01/10 01:51:09;;;;;;;;;86.33;63.33;;;;;-5.05;100.00;98868.19;6312113;20;2903534;-42
2022/01/10 01:53:38;;;;;;;;;74.00;59.00;;;;;-5.03;100.00;98868.13;6308247;20;2500251;-42
2022/01/10 01:56:10;;;;;;;;;80.67;60.33;;;;;-5.21;100.00;98866.59;6281408;20;2893992;-42
2022/01/10 01:58:41;;;;;;;;;78.00;56.00;;;;;-5.47;100.00;98862.53;6308650;20;2498620;-43
2022/01/10 02:01:16;;;;;;;;;89.00;66.00;;;;;-5.69;100.00;98869.72;6277509;20;3649206;-41
2022/01/10 02:03:48;;;;;;;;;82.00;60.00;;;;;-5.54;100.00;98879.16;6311908;20;2887852;-41
2022/01/10 02:06:18;;;;;;;;;80.00;54.00;;;;;-5.83;100.00;98871.59;6280674;20;2883576;-41
2022/01/10 02:08:48;;;;;;;;;77.33;54.00;;;;;-5.53;100.00;98870.44;6314147;20;2887764;-40
2022/01/10 02:11:16;;;;;;;;;81.50;58.00;;;;;-5.51;100.00;98869.53;6306376;20;2501290;-41
2022/01/10 02:13:45;;;;;;;;;73.00;54.00;;;;;-5.25;100.00;98871.00;6274742;20;2497149;-42
2022/01/10 02:16:20;;;;;;;;;78.67;55.67;;;;;-5.37;100.00;98860.66;6280628;20;2886877;-41
2022/01/10 02:18:49;;;;;;;;;79.00;57.00;;;;;-5.42;100.00;98867.72;6306435;20;2495059;-40
2022/01/10 02:21:17;;;;;;;;;77.00;54.50;;;;;-5.30;100.00;98862.34;6276663;20;2885674;-41
2022/01/10 02:23:45;;;;;;;;;67.00;55.50;;;;;-5.05;100.00;98867.28;6277555;20;2510668;-42
2022/01/10 02:26:14;;;;;;;;;74.50;54.50;;;;;-4.80;100.00;98860.88;6275513;20;2501349;-41
2022/01/10 02:28:43;;;;;;;;;19.25;19.25;;;;;-5.18;100.00;98871.81;6295970;20;1842081;-41
2022/01/10 02:31:11;;;;;;;;;82.00;59.00;;;;;-5.14;100.00;98871.75;6306176;20;2502490;-42
2022/01/10 02:33:40;;;;;;;;;89.00;63.50;;;;;-5.08;100.00;98873.44;6273604;20;2500407;-42
2022/01/10 02:36:19;;;;;;;;;93.67;69.00;;;;;-5.37;100.00;98871.13;6279767;20;2895174;-42
2022/01/10 02:38:58;;;;;;;;;93.33;64.33;;;;;-5.42;100.00;98872.97;6312500;20;3658580;-42
2022/01/10 02:41:34;;;;;;;;;99.33;70.33;;;;;-5.22;100.00;98881.44;6308219;20;3671052;-42
2022/01/10 02:44:10;;;;;;;;;91.00;67.00;;;;;-4.78;100.00;98872.19;6310422;20;3656615;-41
2022/01/10 02:46:41;;;;;;;;;85.00;61.50;;;;;-4.74;100.00;98868.66;6308346;20;2502378;-41
2022/01/10 02:49:34;;;;;;;;;90.00;64.67;;;;;-4.66;100.00;98872.03;6279634;20;3667977;-41
2022/01/10 02:52:04;;;;;;;;;83.50;59.50;;;;;-5.17;100.00;98873.53;6309139;20;2502340;-43
2022/01/10 02:54:34;;;;;;;;;88.33;67.33;;;;;-5.33;100.00;98872.84;6279147;20;2894265;-42
2022/01/10 02:57:04;;;;;;;;;99.67;71.33;;;;;-5.57;100.00;98880.06;6311838;20;3658567;-41
2022/01/10 02:59:36;;;;;;;;;108.33;74.33;;;;;-5.56;100.00;98873.94;6310811;20;3683720;-41
2022/01/10 03:02:08;;;;;;;;;107.00;75.67;;;;;-5.29;100.00;98879.78;6310396;20;3666888;-41
2022/01/10 03:04:38;;;;;;;;;91.67;66.33;;;;;-5.57;100.00;98880.06;6310864;20;2902391;-41
2022/01/10 03:07:08;;;;;;;;;90.67;67.67;;;;;-5.85;100.00;98881.19;6310294;20;2900352;-41
2022/01/10 03:09:37;;;;;;;;;82.33;62.00;;;;;-5.92;100.00;98879.50;6310434;20;2888875;-41
2022/01/10 03:12:09;;;;;;;;;87.00;63.67;;;;;-5.92;100.00;98884.72;6311531;20;2896201;-42
2022/01/10 03:14:39;;;;;;;;;93.33;64.33;;;;;-5.25;100.00;98881.47;6313553;20;3656507;-41
2022/01/10 03:17:10;;;;;;;;;91.67;64.00;;;;;-5.53;100.00;98888.72;6315640;20;3659740;-42
2022/01/10 03:19:42;;;;;;;;;76.50;63.00;;;;;-5.60;100.00;98885.34;6313666;20;2867024;-42
2022/01/10 03:22:11;;;;;;;;;84.40;60.60;;;;;-5.40;100.00;98886.88;6284329;20;3651309;-41
2022/01/10 03:24:40;;;;;;;;;81.00;58.33;;;;;-5.48;100.00;98888.69;6283445;20;2886696;-42
2022/01/10 03:27:10;;;;;;;;;85.00;62.00;;;;;-5.51;100.00;98890.44;6314590;20;2888816;-42
2022/01/10 03:29:38;;;;;;;;;75.00;54.00;;;;;-5.90;100.00;98890.81;6281864;20;2495047;-41
2022/01/10 03:32:08;;;;;;;;;77.50;55.50;;;;;-5.34;100.00;98886.81;6285350;20;2887754;-43
2022/01/10 03:34:35;;;;;;;;;79.00;59.00;;;;;-5.43;100.00;98889.53;6280410;20;2496217;-42
2022/01/10 03:37:06;;;;;;;;;63.67;48.00;;;;;-5.59;100.00;98889.66;6284370;20;3591016;-43
2022/01/10 03:39:35;;;;;;;;;87.00;59.00;;;;;-5.05;100.00;98893.44;6284043;20;2890906;-41
2022/01/10 03:42:04;;;;;;;;;80.00;61.00;;;;;-5.07;100.00;98889.13;6280185;20;2498219;-41
2022/01/10 03:44:34;;;;;;;;;96.33;66.67;;;;;-4.81;100.00;98893.19;6283952;20;2897260;-42
2022/01/10 03:47:05;;;;;;;;;99.33;67.67;;;;;-4.61;100.00;98887.66;6316033;20;3681549;-44
2022/01/10 03:49:34;;;;;;;;;82.00;62.00;;;;;-4.42;100.00;98896.16;6315514;20;2891967;-42
2022/01/10 03:52:03;;;;;;;;;73.00;57.00;;;;;-4.42;100.00;98898.78;6280111;20;2492051;-41
2022/01/10 03:54:31;;;;;;;;;82.00;61.00;;;;;-4.70;100.00;98896.53;6278009;20;2500348;-41
2022/01/10 03:56:59;;;;;;;;;82.00;60.50;;;;;-4.93;100.00;98911.66;6290357;20;2500264;-44
2022/01/10 03:59:29;;;;;;;;;85.00;63.67;;;;;-5.47;100.00;98916.59;6284612;20;2899257;-41
2022/01/10 04:01:58;;;;;;;;;78.33;54.33;;;;;-5.47;100.00;98908.75;6312702;20;2890981;-41
2022/01/10 04:04:26;;;;;;;;;78.00;59.00;;;;;-5.03;100.00;98915.25;6312708;20;2497153;-41
2022/01/10 04:06:54;;;;;;;;;80.00;60.00;;;;;-4.65;100.00;98923.53;6279740;20;2502901;-41
2022/01/10 04:09:23;;;;;;;;;90.00;66.33;;;;;-4.74;100.00;98925.38;6284240;20;3647121;-41
2022/01/10 04:11:53;;;;;;;;;86.67;60.33;;;;;-4.81;100.00;98929.84;6313295;20;3663808;-43
2022/01/10 04:14:21;;;;;;;;;75.00;59.00;;;;;-4.81;100.00;98931.59;6309880;20;2500303;-41
2022/01/10 04:16:50;;;;;;;;;90.83;63.17;;;;;-4.55;100.00;98932.13;6283071;20;4417016;-41
2022/01/10 04:19:18;;;;;;;;;79.50;59.00;;;;;-3.98;100.00;98933.94;6308338;20;2502555;-42
2022/01/10 04:21:47;;;;;;;;;85.50;67.50;;;;;-3.93;100.00;98932.13;6280627;20;2878410;-42
2022/01/10 04:24:17;;;;;;;;;105.67;76.00;;;;;-4.07;100.00;98934.09;6282496;20;3681476;-42
2022/01/10 04:26:46;;;;;;;;;101.00;71.67;;;;;-3.97;100.00;98930.44;6281639;20;3659635;-42
2022/01/10 04:29:16;;;;;;;;;93.67;66.33;;;;;-3.81;100.00;98934.56;6314390;20;3664937;-42
2022/01/10 04:31:46;;;;;;;;;111.33;87.00;;;;;-3.84;100.00;98936.38;6313569;20;3688834;-42
2022/01/10 04:34:16;;;;;;;;;105.33;73.00;;;;;-3.98;100.00;98940.06;6281271;20;3671080;-44
2022/01/10 04:36:46;;;;;;;;;101.00;75.33;;;;;-3.93;100.00;98942.59;6314083;20;3656533;-42
2022/01/10 04:39:16;;;;;;;;;185.33;145.33;;;;;-3.73;100.00;98949.31;6315328;20;3713780;-42
2022/01/10 04:41:45;;;;;;;;;163.67;124.50;;;;;-3.84;100.00;98947.72;6276704;20;4455458;-41
2022/01/10 04:44:15;;;;;;;;;109.67;86.67;;;;;-4.28;100.00;98962.31;6312876;20;3687808;-41
2022/01/10 04:46:45;;;;;;;;;92.00;70.00;;;;;-4.66;100.00;98966.31;6280373;20;3658610;-42
2022/01/10 04:49:24;;;;;;;;;92.00;67.00;;;;;-4.24;100.00;98964.03;6307128;20;2500294;-41
2022/01/10 04:51:54;;;;;;;;;94.00;66.67;;;;;-3.95;100.00;98960.09;6277414;20;3658572;-42
2022/01/10 04:54:24;;;;;;;;;87.33;65.67;;;;;-3.86;100.00;98964.38;6315601;20;3647131;-42
2022/01/10 04:56:52;;;;;;;;;80.00;61.00;;;;;-3.84;100.00;98957.34;6310873;20;2500306;-41
2022/01/10 04:59:22;;;;;;;;;101.33;75.00;;;;;-3.80;100.00;98962.50;6281958;20;3668996;-42
2022/01/10 05:01:52;;;;;;;;;108.00;74.67;;;;;-3.90;100.00;98968.78;6310718;20;3673133;-42
2022/01/10 05:04:22;;;;;;;;;99.33;73.33;;;;;-3.84;100.00;98979.19;6314269;20;3655435;-42
2022/01/10 05:06:51;;;;;;;;;110.33;77.67;;;;;-4.03;100.00;98978.59;6312537;20;3683539;-42
2022/01/10 05:09:21;;;;;;;;;102.33;76.33;;;;;-3.84;100.00;98973.94;6280348;20;3672116;-41
2022/01/10 05:11:51;;;;;;;;;96.33;70.67;;;;;-4.11;100.00;98977.81;6313001;20;3652325;-44
2022/01/10 05:14:20;;;;;;;;;94.00;69.00;;;;;-4.25;100.00;98983.25;6313626;20;3645145;-41
2022/01/10 05:16:50;;;;;;;;;93.33;68.00;;;;;-4.23;100.00;98991.97;6312566;20;2896158;-41
2022/01/10 05:19:20;;;;;;;;;82.00;61.00;;;;;-4.39;100.00;98990.44;6308656;20;3644013;-43
2022/01/10 05:21:47;;;;;;;;;84.00;65.00;;;;;-4.40;100.00;99004.41;6276196;20;2500469;-42
2022/01/10 05:24:17;;;;;;;;;103.00;67.67;;;;;-4.39;100.00;99000.91;6281848;20;3675485;-41
2022/01/10 05:26:46;;;;;;;;;82.00;58.50;;;;;-4.18;100.00;99009.41;6310287;20;2886789;-42
2022/01/10 05:29:16;;;;;;;;;93.33;68.67;;;;;-4.11;100.00;99008.41;6280852;20;3649331;-44
2022/01/10 05:31:44;;;;;;;;;89.50;71.00;;;;;-4.27;100.00;99011.22;6310826;20;2884702;-42
2022/01/10 05:34:15;;;;;;;;;90.33;63.33;;;;;-4.05;100.00;99011.81;6280670;20;2900315;-41
2022/01/10 05:36:44;;;;;;;;;99.00;71.00;;;;;-4.01;100.00;99010.88;6312800;20;3652339;-42
2022/01/10 05:39:14;;;;;;;;;98.33;73.33;;;;;-4.04;100.00;99017.94;6313327;20;3656534;-42
2022/01/10 05:41:48;;;;;;;;;98.33;76.00;;;;;-3.94;100.00;99022.16;6312315;20;3639859;-43
2022/01/10 05:44:18;;;;;;;;;109.67;82.33;;;;;-4.00;100.00;99017.88;6312803;20;3688748;-43
2022/01/10 05:46:48;;;;;;;;;101.33;72.00;;;;;-4.20;100.00;99023.38;6279030;20;3662706;-43
2022/01/10 05:49:25;;;;;;;;;96.67;71.00;;;;;-4.07;100.00;99028.47;6311442;20;2882652;-44
2022/01/10 05:51:54;;;;;;;;;96.67;72.33;;;;;-3.94;100.00;99024.78;6311191;20;3657565;-42
2022/01/10 05:54:24;;;;;;;;;106.33;77.67;;;;;-3.68;100.00;99034.91;6312294;20;3664936;-43
2022/01/10 05:56:54;;;;;;;;;99.00;68.00;;;;;-4.28;100.00;99040.94;6313651;20;3669040;-42
2022/01/10 05:59:23;;;;;;;;;94.33;70.00;;;;;-4.24;100.00;99037.41;6311035;20;3649190;-44
2022/01/10 06:01:53;;;;;;;;;92.67;64.00;;;;;-4.37;100.00;99038.44;6310929;20;2906640;-42
2022/01/10 06:04:23;;;;;;;;;92.50;68.50;;;;;-4.11;100.00;99037.25;6310721;20;3541908;-43
2022/01/10 06:06:52;;;;;;;;;85.67;63.00;;;;;-4.57;100.00;99045.66;6310390;20;2889901;-41
2022/01/10 06:09:22;;;;;;;;;82.00;62.00;;;;;-4.59;100.00;99045.66;6311800;20;2886835;-43
2022/01/10 06:11:50;;;;;;;;;83.00;64.50;;;;;-4.56;100.00;99044.78;6274751;20;2500317;-44
2022/01/10 06:14:19;;;;;;;;;76.50;63.50;;;;;-4.04;100.00;99052.00;6281130;20;2875243;-45
2022/01/10 06:16:48;;;;;;;;;103.67;74.33;;;;;-4.21;100.00;99044.38;6281535;20;3670010;-42
2022/01/10 06:19:18;;;;;;;;;98.67;71.33;;;;;-3.95;100.00;99041.38;6309719;20;3660720;-42
2022/01/10 06:21:48;;;;;;;;;104.00;72.00;;;;;-3.65;100.00;99044.47;6312038;20;3673177;-45
2022/01/10 06:24:18;;;;;;;;;96.33;72.00;;;;;-3.88;100.00;99050.06;6312403;20;3657567;-43
2022/01/10 06:26:50;;;;;;;;;100.33;73.00;;;;;-3.83;100.00;99049.09;6314128;20;3674220;-43
2022/01/10 06:29:20;;;;;;;;;102.33;74.00;;;;;-3.73;100.00;99060.34;6278727;20;3670136;-43
2022/01/10 06:31:49;;;;;;;;;103.67;73.33;;;;;-4.03;100.00;99062.50;6308887;20;3670153;-42
2022/01/10 06:34:19;;;;;;;;;95.00;72.33;;;;;-4.21;100.00;99060.97;6310457;20;2891949;-42
2022/01/10 06:36:49;;;;;;;;;105.00;75.00;;;;;-4.23;100.00;99065.34;6313236;20;3673205;-42
2022/01/10 06:39:18;;;;;;;;;92.33;69.67;;;;;-4.27;100.00;99055.78;6309867;20;2905577;-42
2022/01/10 06:41:48;;;;;;;;;101.33;73.00;;;;;-4.13;100.00;99070.47;6310437;20;3675313;-43
2022/01/10 06:44:18;;;;;;;;;108.33;73.33;;;;;-3.69;100.00;99075.13;6311359;20;3682674;-41
2022/01/10 06:46:47;;;;;;;;;105.67;76.00;;;;;-3.65;100.00;99068.97;6314645;20;3671091;-44
2022/01/10 06:49:17;;;;;;;;;103.33;75.00;;;;;-3.70;100.00;99076.03;6316525;20;3681526;-44
2022/01/10 06:51:47;;;;;;;;;104.00;79.00;;;;;-4.05;100.00;99071.25;6315764;20;3666918;-44
2022/01/10 06:54:17;;;;;;;;;106.00;79.00;;;;;-3.81;100.00;99072.69;6317186;20;3677477;-45
2022/01/10 06:56:52;;;;;;;;;103.33;75.00;;;;;-3.70;100.00;99085.66;6282633;20;3672170;-41
2022/01/10 06:59:21;;;;;;;;;100.67;70.67;;;;;-3.60;100.00;99084.63;6316930;20;3653484;-43
2022/01/10 07:01:52;;;;;;;;;91.00;67.67;;;;;-3.34;100.00;99084.25;6314192;20;3654399;-44
2022/01/10 07:04:27;;;;;;;;;84.67;60.67;;;;;-3.46;100.00;99090.53;6317068;20;2897143;-43
2022/01/10 07:06:57;;;;;;;;;98.67;72.00;;;;;-3.38;100.00;99087.81;6317778;20;3671234;-43
2022/01/10 07:09:27;;;;;;;;;102.67;73.33;;;;;-3.51;100.00;99092.34;6280324;20;3666982;-42
2022/01/10 07:11:57;;;;;;;;;102.67;75.33;;;;;-3.38;100.00;99093.91;6316176;20;3672161;-45
2022/01/10 07:14:28;;;;;;;;;107.33;77.67;;;;;-3.49;100.00;99097.59;6316216;20;3678374;-42
2022/01/10 07:16:58;;;;;;;;;106.33;79.33;;;;;-3.56;100.00;99099.44;6284456;20;3673211;-43
2022/01/10 07:19:28;;;;;;;;;114.67;91.67;;;;;-3.43;100.00;99110.63;6313523;20;3680432;-42
2022/01/10 07:21:58;;;;;;;;;104.33;77.00;;;;;-3.56;100.00;99113.41;6282573;20;3672299;-43
2022/01/10 07:24:28;;;;;;;;;110.00;85.00;;;;;-3.34;100.00;99121.00;6315969;20;3686713;-42
2022/01/10 07:27:01;;;;;;;;;108.00;78.00;;;;;-3.17;100.00;99123.38;6282888;20;3683567;-42
2022/01/10 07:29:30;;;;;;;;;104.67;79.33;;;;;-3.09;100.00;99127.59;6315798;20;3672085;-42
2022/01/10 07:32:00;;;;;;;;;114.33;88.33;;;;;-2.92;100.00;99131.75;6317738;20;3681530;-43
2022/01/10 07:34:30;;;;;;;;;111.67;88.67;;;;;-2.87;100.00;99137.75;6282555;20;3687738;-41
2022/01/10 07:37:00;;;;;;;;;174.33;129.67;;;;;-2.84;100.00;99126.34;6284649;20;3707488;-43
2022/01/10 07:39:29;;;;;;;;;127.00;103.33;;;;;-2.53;100.00;99132.78;6282925;20;3718973;-44
2022/01/10 07:41:59;;;;;;;;;109.67;82.67;;;;;-2.55;100.00;99133.75;6282938;20;3699197;-41
2022/01/10 07:44:29;;;;;;;;;102.00;72.00;;;;;-2.64;100.00;99129.50;6284284;20;3677315;-43
2022/01/10 07:46:59;;;;;;;;;92.33;72.33;;;;;-2.50;100.00;99132.78;6315425;20;2884666;-43
2022/01/10 07:49:30;;;;;;;;;107.67;77.00;;;;;-2.45;100.00;99127.41;6316264;20;3680479;-42
2022/01/10 07:52:00;;;;;;;;;100.33;75.00;;;;;-2.63;100.00;99126.00;6282260;20;3661718;-42
2022/01/10 07:54:29;;;;;;;;;96.00;72.00;;;;;-2.27;100.00;99131.47;6317639;20;3642976;-46
2022/01/10 07:56:59;;;;;;;;;99.67;75.33;;;;;-2.39;100.00;99123.81;6316620;20;3657582;-43
2022/01/10 07:59:29;;;;;;;;;95.67;72.33;;;;;-2.46;100.00;99118.66;6319200;20;3652304;-42
2022/01/10 08:01:58;;;;;;;;;104.67;80.33;;;;;-2.49;100.00;99123.97;6316467;20;3657949;-44
2022/01/10 08:04:28;;;;;;;;;93.67;70.33;;;;;-2.45;100.00;99124.78;6320320;20;3653412;-41
2022/01/10 08:06:58;;;;;;;;;99.33;73.67;;;;;-2.46;100.00;99128.31;6317801;20;3667984;-41
2022/01/10 08:09:28;;;;;;;;;99.33;73.33;;;;;-2.50;100.00;99135.41;6319286;20;3670628;-41
2022/01/10 08:12:00;;;;;;;;;107.00;81.00;;;;;-2.41;100.00;99130.88;6315518;20;3683578;-41
2022/01/10 08:14:32;;;;;;;;;100.67;76.00;;;;;-2.31;100.00;99135.06;6286574;20;3658766;-40
2022/01/10 08:17:03;;;;;;;;;107.67;78.00;;;;;-2.19;100.00;99129.56;6317163;20;3687739;-41
2022/01/10 08:19:34;;;;;;;;;118.33;95.00;;;;;-2.34;100.00;99128.09;6288582;20;3697235;-42
2022/01/10 08:22:04;;;;;;;;;124.33;96.33;;;;;-2.02;100.00;99139.78;6286148;20;3700235;-41
2022/01/10 08:24:34;;;;;;;;;101.00;74.67;;;;;-1.80;100.00;99140.19;6284504;20;3678335;-40
2022/01/10 08:27:05;;;;;;;;;100.33;72.67;;;;;-1.75;100.00;99138.34;6284006;20;3672192;-41
2022/01/10 08:29:34;;;;;;;;;97.67;71.67;;;;;-1.55;100.00;99141.44;6315340;20;3651530;-43
2022/01/10 08:32:05;;;;;;;;;102.67;74.67;;;;;-1.58;99.94;99138.88;6317114;20;3680490;-41
2022/01/10 08:34:38;;;;;;;;;101.33;75.67;;;;;-1.32;99.51;99142.66;6283855;20;3669121;-41
2022/01/10 08:37:08;;;;;;;;;96.00;69.67;;;;;-1.48;98.99;99138.66;6317723;20;3660709;-40
2022/01/10 08:39:38;;;;;;;;;96.33;71.33;;;;;-1.24;99.41;99145.13;6317385;20;3660653;-41
2022/01/10 08:42:08;;;;;;;;;101.67;74.33;;;;;-1.29;99.04;99153.16;6315986;20;3676319;-41
2022/01/10 08:44:38;;;;;;;;;91.00;69.33;;;;;-1.20;98.38;99162.63;6279602;20;2884752;-41
2022/01/10 08:47:07;;;;;;;;;99.33;73.33;;;;;-1.00;98.24;99160.41;6317926;20;3653414;-41
2022/01/10 08:49:37;;;;;;;;;94.00;71.67;;;;;-0.92;97.43;99160.22;6317436;20;3654386;-41
2022/01/10 08:52:08;;;;;;;;;98.33;73.33;;;;;-0.88;97.66;99164.50;6318954;20;3661854;-41
2022/01/10 08:54:38;;;;;;;;;95.67;72.67;;;;;-0.67;96.70;99168.38;6316525;20;3631936;-43
2022/01/10 08:57:06;;;;;;;;;92.00;63.00;;;;;-0.44;96.22;99170.47;6314864;20;2507567;-41
2022/01/10 08:59:36;;;;;;;;;104.00;74.00;;;;;-0.58;96.07;99167.28;6284472;20;3676254;-41
2022/01/10 09:02:06;;;;;;;;;92.67;68.00;;;;;-0.42;95.63;99167.78;6283387;20;3652470;-41
2022/01/10 09:04:37;;;;;;;;;107.33;82.00;;;;;-0.02;95.12;99170.25;6316486;20;3682549;-41
2022/01/10 09:07:08;;;;;;;;;90.00;65.67;;;;;0.16;93.38;99172.38;6286238;20;3649228;-41
2022/01/10 09:09:38;;;;;;;;;83.67;65.00;;;;;0.54;92.09;99173.06;6316704;20;3634625;-41
2022/01/10 09:12:08;;;;;;;;;89.33;66.33;;;;;0.77;90.53;99168.88;6318071;20;3657571;-40
2022/01/10 09:14:38;;;;;;;;;78.67;58.00;;;;;0.84;87.88;99173.06;6318900;20;2877486;-41
2022/01/10 09:17:08;;;;;;;;;79.33;61.00;;;;;0.87;86.84;99180.91;6317390;20;2873362;-41
2022/01/10 09:19:38;;;;;;;;;86.00;63.67;;;;;1.12;87.30;99180.16;6316815;20;3659590;-40
2022/01/10 09:22:07;;;;;;;;;76.00;57.67;;;;;1.15;85.64;99180.03;6317282;20;3641932;-44
2022/01/10 09:24:35;;;;;;;;;61.00;48.00;;;;;1.19;84.40;99177.25;6312695;20;2503420;-40
2022/01/10 09:27:06;;;;;;;;;67.50;52.00;;;;;1.22;84.25;99171.00;6286987;20;2868001;-40
2022/01/10 09:29:36;;;;;;;;;76.33;58.00;;;;;1.45;84.14;99168.50;6285380;20;3648148;-41
2022/01/10 09:32:07;;;;;;;;;74.67;52.33;;;;;1.41;84.01;99182.72;6317962;20;2883625;-42
2022/01/10 09:34:35;;;;;;;;;63.50;42.50;;;;;1.51;82.50;99165.63;6312781;20;2468007;-44
2022/01/10 09:37:04;;;;;;;;;72.00;53.00;;;;;1.48;82.44;99167.53;6283233;20;2500272;-42
2022/01/10 09:39:34;;;;;;;;;66.00;53.67;;;;;1.57;82.33;99161.91;6285316;20;3607645;-41
2022/01/10 09:42:03;;;;;;;;;70.00;53.00;;;;;1.81;82.82;99170.81;6318240;20;2761809;-41
2022/01/10 09:44:34;;;;;;;;;69.50;52.00;;;;;1.67;82.76;99176.56;6314046;20;2882554;-42
2022/01/10 09:47:04;;;;;;;;;63.67;46.67;;;;;1.90;81.86;99173.16;6285583;20;3648112;-41
2022/01/10 09:49:33;;;;;;;;;69.00;51.00;;;;;2.03;81.92;99178.00;6314221;20;2895326;-40
2022/01/10 09:52:04;;;;;;;;;61.50;50.00;;;;;2.01;81.71;99178.06;6317263;20;2857581;-41
2022/01/10 09:54:33;;;;;;;;;68.00;53.00;;;;;2.23;82.09;99183.47;6285612;20;2878394;-40
2022/01/10 09:57:03;;;;;;;;;66.33;51.67;;;;;2.34;83.07;99176.00;6283675;20;2870159;-42
2022/01/10 09:59:33;;;;;;;;;70.67;56.00;;;;;2.50;81.94;99178.97;6315220;20;2892173;-42
2022/01/10 10:02:04;;;;;;;;;59.50;47.50;;;;;2.45;80.04;99172.97;6315676;20;2866938;-43
2022/01/10 10:04:38;;;;;;;;;67.50;53.00;;;;;2.39;79.88;99181.13;6281247;20;2858581;-42
2022/01/10 10:07:08;;;;;;;;;80.00;61.67;;;;;2.54;80.56;99177.06;6285466;20;3635649;-42
2022/01/10 10:09:37;;;;;;;;;64.50;53.00;;;;;2.78;79.77;99186.72;6318351;20;2865867;-41
2022/01/10 10:12:08;;;;;;;;;66.33;48.33;;;;;2.95;78.76;99187.84;6285039;20;2889926;-41
2022/01/10 10:14:40;;;;;;;;;63.50;52.50;;;;;2.97;78.17;99188.66;6314747;20;2863851;-41
2022/01/10 10:17:14;;;;;;;;;69.33;52.33;;;;;3.21;78.42;99184.19;6282785;20;2879442;-43
2022/01/10 10:19:46;;;;;;;;;66.33;50.67;;;;;2.93;77.90;99192.38;6316557;20;2878535;-42
2022/01/10 10:22:16;;;;;;;;;55.50;43.00;;;;;2.84;78.21;99190.94;6315890;20;2878391;-43
2022/01/10 10:24:50;;;;;;;;;55.50;46.50;;;;;2.98;77.18;99187.78;6281112;20;2859749;-42
2022/01/10 10:27:21;;;;;;;;;67.33;47.00;;;;;3.12;76.00;99185.44;6285811;20;3636863;-43
2022/01/10 10:30:27;;;;;;;;;47.00;44.00;;;;;3.35;75.17;99187.19;6312697;20;2492954;-41
2022/01/10 10:33:20;;;;;;;;;59.00;47.00;;;;;2.85;75.46;99182.94;6282547;20;2867966;-42
2022/01/10 10:36:03;;;;;;;;;48.00;41.00;;;;;3.28;75.23;99186.53;6285857;20;2864884;-41
2022/01/10 10:38:33;;;;;;;;;61.00;45.50;;;;;3.51;74.83;99182.09;6284937;20;2867002;-41
2022/01/10 10:41:04;;;;;;;;;35.00;35.00;;;;;3.06;73.95;99178.56;6308145;20;2500268;-42
2022/01/10 10:43:37;;;;;;;;;36.00;31.50;;;;;3.57;73.51;99170.38;6284458;20;2861696;-41
2022/01/10 10:46:15;;;;;;;;;47.33;35.00;;;;;3.45;73.04;99182.34;6283815;20;3631585;-41
2022/01/10 10:48:52;;;;;;;;;45.33;35.67;;;;;3.18;72.00;99179.88;6317016;20;2870090;-41
2022/01/10 10:51:21;;;;;;;;;48.67;36.00;;;;;3.62;74.57;99181.66;6314828;20;3623142;-44
2022/01/10 10:53:49;;;;;;;;;33.50;23.50;;;;;3.58;72.50;99183.59;6310159;20;2500279;-41
2022/01/10 10:56:18;;;;;;;;;31.50;30.00;;;;;3.53;71.52;99190.88;6283875;20;2839967;-41
2022/01/10 10:58:47;;;;;;;;;38.50;36.50;;;;;3.50;72.12;99183.00;6283873;20;2856581;-42
2022/01/10 11:01:16;;;;;;;;;44.67;38.33;;;;;4.03;71.28;99174.63;6280484;20;2875392;-41
2022/01/10 11:03:47;;;;;;;;;32.33;27.33;;;;;3.80;70.36;99186.22;6314022;20;3579381;-42
2022/01/10 11:06:17;;;;;;;;;41.67;34.67;;;;;3.78;69.44;99179.22;6283421;20;2870160;-42
2022/01/10 11:08:47;;;;;;;;;31.00;26.50;;;;;3.87;68.10;99181.47;6315514;20;2857576;-42
2022/01/10 11:11:21;;;;;;;;;29.67;24.67;;;;;3.79;66.57;99186.25;6281119;20;3580415;-43
2022/01/10 11:13:55;;;;;;;;;29.00;19.00;;;;;3.83;67.15;99183.41;6279071;20;2491909;-42
2022/01/10 11:16:25;;;;;;;;;35.50;31.00;;;;;4.26;67.09;99191.31;6280019;20;2846130;-42